sensor_id;sensor_type;location;lat;lon;timestamp;pressure;altitude;pressure_sealevel;temperature;humidity
39301;BME280;25019;42.626;23.380;2023-06-05T00:02:00;94863.06;;;14.11;100.00
39301;BME280;25019;42.626;23.380;2023-06-05T00:04:26;94892.75;;;14.20;100.00
39301;BME280;25019;42.626;23.380;2023-06-05T00:06:53;94894.63;;;14.19;100.00
39301;BME280;25019;42.626;23.380;2023-06-05T00:09:19;94890.34;;;14.18;100.00
39301;BME280;25019;42.626;23.380;2023-06-05T00:11:44;94892.22;;;14.18;100.00
39301;BME280;25019;42.626;23.380;2023-06-05T00:14:10;94897.81;;;14.16;100.00
39301;BME280;25019;42.626;23.380;2023-06-05T00:16:36;94891.66;;;14.16;100.00
39301;BME280;25019;42.626;23.380;2023-06-05T00:19:02;94890.88;;;14.15;100.00
39301;BME280;25019;42.626;23.380;2023-06-05T00:21:28;94897.00;;;14.16;100.00
39301;BME280;25019;42.626;23.380;2023-06-05T00:23:54;94901.56;;;14.15;100.00
39301;BME280;25019;42.626;23.380;2023-06-05T00:26:20;94838.31;;;13.78;100.00
39301;BME280;25019;42.626;23.380;2023-06-05T00:28:46;94903.69;;;14.13;100.00
39301;BME280;25019;42.626;23.380;2023-06-05T00:31:12;94888.41;;;14.08;100.00
39301;BME280;25019;42.626;23.380;2023-06-05T00:33:42;94873.69;;;14.01;100.00
39301;BME280;25019;42.626;23.380;2023-06-05T00:36:08;94882.28;;;14.08;100.00
39301;BME280;25019;42.626;23.380;2023-06-05T00:38:34;94890.00;;;14.09;100.00
39301;BME280;25019;42.626;23.380;2023-06-05T00:40:59;94894.84;;;14.13;100.00
39301;BME280;25019;42.626;23.380;2023-06-05T00:43:25;94898.56;;;14.12;100.00
39301;BME280;25019;42.626;23.380;2023-06-05T00:46:01;94895.34;;;14.09;100.00
39301;BME280;25019;42.626;23.380;2023-06-05T00:48:29;94888.41;;;14.03;100.00
39301;BME280;25019;42.626;23.380;2023-06-05T00:50:55;94813.84;;;13.54;100.00
39301;BME280;25019;42.626;23.380;2023-06-05T00:53:24;94893.22;;;14.06;100.00
39301;BME280;25019;42.626;23.380;2023-06-05T00:55:51;94879.06;;;14.06;100.00
39301;BME280;25019;42.626;23.380;2023-06-05T00:58:17;94880.94;;;14.05;100.00
39301;BME280;25019;42.626;23.380;2023-06-05T01:00:43;94874.22;;;14.03;100.00
39301;BME280;25019;42.626;23.380;2023-06-05T01:03:09;94828.13;;;13.75;100.00
39301;BME280;25019;42.626;23.380;2023-06-05T01:05:37;94862.72;;;13.97;100.00
39301;BME280;25019;42.626;23.380;2023-06-05T01:08:04;94863.75;;;13.91;100.00
39301;BME280;25019;42.626;23.380;2023-06-05T01:10:31;94866.41;;;13.91;100.00
39301;BME280;25019;42.626;23.380;2023-06-05T01:13:12;94868.53;;;13.89;100.00
39301;BME280;25019;42.626;23.380;2023-06-05T01:15:40;94820.78;;;13.55;100.00
39301;BME280;25019;42.626;23.380;2023-06-05T01:18:06;94865.81;;;13.84;100.00
39301;BME280;25019;42.626;23.380;2023-06-05T01:20:40;94858.03;;;13.77;100.00
39301;BME280;25019;42.626;23.380;2023-06-05T01:23:10;94852.19;;;13.80;100.00
39301;BME280;25019;42.626;23.380;2023-06-05T01:25:36;94862.31;;;13.78;100.00
39301;BME280;25019;42.626;23.380;2023-06-05T01:28:16;94859.38;;;13.74;100.00
39301;BME280;25019;42.626;23.380;2023-06-05T01:33:40;94855.09;;;13.73;100.00
39301;BME280;25019;42.626;23.380;2023-06-05T01:36:13;94836.00;;;13.54;100.00
39301;BME280;25019;42.626;23.380;2023-06-05T01:38:41;94859.28;;;13.64;100.00
39301;BME280;25019;42.626;23.380;2023-06-05T01:41:09;94852.34;;;13.63;100.00
39301;BME280;25019;42.626;23.380;2023-06-05T01:43:36;94851.56;;;13.62;100.00
39301;BME280;25019;42.626;23.380;2023-06-05T01:46:04;94851.28;;;13.64;100.00
39301;BME280;25019;42.626;23.380;2023-06-05T01:48:32;94848.38;;;13.66;100.00
39301;BME280;25019;42.626;23.380;2023-06-05T01:51:00;94848.63;;;13.64;100.00
39301;BME280;25019;42.626;23.380;2023-06-05T01:53:27;94828.84;;;13.60;100.00
39301;BME280;25019;42.626;23.380;2023-06-05T01:55:53;94812.97;;;13.43;100.00
39301;BME280;25019;42.626;23.380;2023-06-05T01:58:23;94845.94;;;13.64;100.00
39301;BME280;25019;42.626;23.380;2023-06-05T02:00:50;94799.00;;;13.30;100.00
39301;BME280;25019;42.626;23.380;2023-06-05T02:03:17;94843.56;;;13.62;100.00
39301;BME280;25019;42.626;23.380;2023-06-05T02:05:42;94850.75;;;13.62;100.00
39301;BME280;25019;42.626;23.380;2023-06-05T02:08:08;94764.69;;;13.12;100.00
39301;BME280;25019;42.626;23.380;2023-06-05T02:10:35;94833.91;;;13.56;100.00
39301;BME280;25019;42.626;23.380;2023-06-05T02:13:01;94842.72;;;13.62;100.00
39301;BME280;25019;42.626;23.380;2023-06-05T02:15:28;94831.81;;;13.63;100.00
39301;BME280;25019;42.626;23.380;2023-06-05T02:18:00;94824.00;;;13.57;100.00
39301;BME280;25019;42.626;23.380;2023-06-05T02:20:25;94837.94;;;13.64;100.00
39301;BME280;25019;42.626;23.380;2023-06-05T02:22:52;94829.66;;;13.60;100.00
39301;BME280;25019;42.626;23.380;2023-06-05T02:25:21;94840.34;;;13.60;100.00
39301;BME280;25019;42.626;23.380;2023-06-05T02:27:51;94836.56;;;13.56;100.00
39301;BME280;25019;42.626;23.380;2023-06-05T02:30:17;94842.44;;;13.58;100.00
39301;BME280;25019;42.626;23.380;2023-06-05T02:32:43;94784.28;;;13.23;100.00
39301;BME280;25019;42.626;23.380;2023-06-05T02:35:10;94838.44;;;13.61;100.00
39301;BME280;25019;42.626;23.380;2023-06-05T02:37:36;94794.16;;;13.27;100.00
39301;BME280;25019;42.626;23.380;2023-06-05T02:40:10;94851.78;;;13.61;100.00
39301;BME280;25019;42.626;23.380;2023-06-05T02:42:37;94847.78;;;13.58;100.00
39301;BME280;25019;42.626;23.380;2023-06-05T02:45:03;94749.66;;;12.95;100.00
39301;BME280;25019;42.626;23.380;2023-06-05T02:47:30;94844.56;;;13.56;100.00
39301;BME280;25019;42.626;23.380;2023-06-05T02:49:57;94844.03;;;13.54;100.00
39301;BME280;25019;42.626;23.380;2023-06-05T02:52:22;94842.69;;;13.52;100.00
39301;BME280;25019;42.626;23.380;2023-06-05T02:54:51;94848.53;;;13.54;100.00
39301;BME280;25019;42.626;23.380;2023-06-05T02:57:17;94854.13;;;13.52;100.00
39301;BME280;25019;42.626;23.380;2023-06-05T02:59:44;94849.81;;;13.46;100.00
39301;BME280;25019;42.626;23.380;2023-06-05T03:02:13;94853.34;;;13.52;100.00
39301;BME280;25019;42.626;23.380;2023-06-05T03:04:41;94840.00;;;13.52;100.00
39301;BME280;25019;42.626;23.380;2023-06-05T03:07:08;94848.84;;;13.57;100.00
39301;BME280;25019;42.626;23.380;2023-06-05T03:09:36;94850.47;;;13.58;100.00
39301;BME280;25019;42.626;23.380;2023-06-05T03:12:03;94848.56;;;13.59;100.00
39301;BME280;25019;42.626;23.380;2023-06-05T03:14:29;94853.41;;;13.62;100.00
39301;BME280;25019;42.626;23.380;2023-06-05T03:16:57;94834.66;;;13.52;100.00
39301;BME280;25019;42.626;23.380;2023-06-05T03:19:25;94859.56;;;13.68;100.00
39301;BME280;25019;42.626;23.380;2023-06-05T03:21:53;94858.00;;;13.72;100.00
39301;BME280;25019;42.626;23.380;2023-06-05T03:24:20;94857.00;;;13.78;100.00
39301;BME280;25019;42.626;23.380;2023-06-05T03:26:53;94862.91;;;13.85;100.00
39301;BME280;25019;42.626;23.380;2023-06-05T03:29:20;94856.56;;;13.91;100.00
39301;BME280;25019;42.626;23.380;2023-06-05T03:31:47;94822.22;;;13.68;100.00
39301;BME280;25019;42.626;23.380;2023-06-05T03:34:12;94864.88;;;14.00;100.00
39301;BME280;25019;42.626;23.380;2023-06-05T03:36:38;94871.09;;;14.16;100.00
39301;BME280;25019;42.626;23.380;2023-06-05T03:39:07;94876.06;;;14.50;100.00
39301;BME280;25019;42.626;23.380;2023-06-05T03:41:35;94872.97;;;14.79;100.00
39301;BME280;25019;42.626;23.380;2023-06-05T03:44:01;94877.88;;;15.13;100.00
39301;BME280;25019;42.626;23.380;2023-06-05T03:46:29;94868.28;;;15.43;100.00
39301;BME280;25019;42.626;23.380;2023-06-05T03:48:56;94869.34;;;15.79;100.00
39301;BME280;25019;42.626;23.380;2023-06-05T03:51:26;94879.75;;;16.27;100.00
39301;BME280;25019;42.626;23.380;2023-06-05T03:53:56;94878.25;;;16.66;100.00
39301;BME280;25019;42.626;23.380;2023-06-05T03:56:24;94874.09;;;16.99;100.00
39301;BME280;25019;42.626;23.380;2023-06-05T03:58:55;94868.56;;;17.25;100.00
39301;BME280;25019;42.626;23.380;2023-06-05T04:01:21;94875.28;;;17.62;100.00
39301;BME280;25019;42.626;23.380;2023-06-05T04:03:47;94865.44;;;17.52;100.00
39301;BME280;25019;42.626;23.380;2023-06-05T04:06:12;94878.53;;;17.89;100.00
39301;BME280;25019;42.626;23.380;2023-06-05T04:08:38;94875.81;;;17.94;100.00
39301;BME280;25019;42.626;23.380;2023-06-05T04:11:04;94868.56;;;18.24;100.00
39301;BME280;25019;42.626;23.380;2023-06-05T04:13:30;94869.72;;;18.66;100.00
39301;BME280;25019;42.626;23.380;2023-06-05T04:15:55;94800.94;;;18.36;100.00
39301;BME280;25019;42.626;23.380;2023-06-05T04:18:21;94870.19;;;18.93;100.00
39301;BME280;25019;42.626;23.380;2023-06-05T04:20:49;94872.16;;;19.25;100.00
39301;BME280;25019;42.626;23.380;2023-06-05T04:23:16;94870.03;;;19.60;100.00
39301;BME280;25019;42.626;23.380;2023-06-05T04:25:43;94871.47;;;19.91;100.00
39301;BME280;25019;42.626;23.380;2023-06-05T04:28:11;94851.22;;;20.21;100.00
39301;BME280;25019;42.626;23.380;2023-06-05T04:30:37;94865.03;;;20.76;100.00
39301;BME280;25019;42.626;23.380;2023-06-05T04:33:03;94869.56;;;21.17;100.00
39301;BME280;25019;42.626;23.380;2023-06-05T04:35:32;94877.66;;;21.54;96.22
39301;BME280;25019;42.626;23.380;2023-06-05T04:37:59;94832.72;;;21.35;92.00
39301;BME280;25019;42.626;23.380;2023-06-05T04:40:26;94859.53;;;22.00;88.80
39301;BME280;25019;42.626;23.380;2023-06-05T04:42:53;94861.84;;;21.84;85.93
39301;BME280;25019;42.626;23.380;2023-06-05T04:45:22;94871.13;;;21.69;85.82
39301;BME280;25019;42.626;23.380;2023-06-05T04:47:49;94860.66;;;21.99;84.01
39301;BME280;25019;42.626;23.380;2023-06-05T04:50:25;94795.75;;;21.67;82.23
39301;BME280;25019;42.626;23.380;2023-06-05T04:52:56;94844.63;;;21.80;83.21
39301;BME280;25019;42.626;23.380;2023-06-05T04:55:22;94863.00;;;21.69;84.84
39301;BME280;25019;42.626;23.380;2023-06-05T04:57:50;94863.22;;;21.73;85.41
39301;BME280;25019;42.626;23.380;2023-06-05T05:00:17;94870.88;;;21.79;86.06
39301;BME280;25019;42.626;23.380;2023-06-05T05:02:44;94878.44;;;21.68;85.47
39301;BME280;25019;42.626;23.380;2023-06-05T05:05:09;94872.53;;;21.89;85.12
39301;BME280;25019;42.626;23.380;2023-06-05T05:07:41;94867.22;;;22.38;83.43
39301;BME280;25019;42.626;23.380;2023-06-05T05:10:08;94821.63;;;22.23;81.26
39301;BME280;25019;42.626;23.380;2023-06-05T05:12:35;94862.69;;;22.56;81.32
39301;BME280;25019;42.626;23.380;2023-06-05T05:15:02;94867.41;;;22.91;79.55
39301;BME280;25019;42.626;23.380;2023-06-05T05:17:30;94864.22;;;22.98;77.85
39301;BME280;25019;42.626;23.380;2023-06-05T05:19:56;94861.75;;;23.28;77.86
39301;BME280;25019;42.626;23.380;2023-06-05T05:22:26;94870.69;;;23.37;76.20
39301;BME280;25019;42.626;23.380;2023-06-05T05:24:53;94870.50;;;23.60;75.59
39301;BME280;25019;42.626;23.380;2023-06-05T05:27:19;94864.13;;;23.47;75.23
39301;BME280;25019;42.626;23.380;2023-06-05T05:29:45;94868.91;;;23.68;74.19
39301;BME280;25019;42.626;23.380;2023-06-05T05:32:11;94864.91;;;23.83;73.77
39301;BME280;25019;42.626;23.380;2023-06-05T05:34:36;94863.78;;;23.75;73.38
39301;BME280;25019;42.626;23.380;2023-06-05T05:37:03;94871.78;;;23.36;75.33
39301;BME280;25019;42.626;23.380;2023-06-05T05:39:29;94863.31;;;23.46;75.65
39301;BME280;25019;42.626;23.380;2023-06-05T05:41:55;94877.03;;;23.59;75.60
39301;BME280;25019;42.626;23.380;2023-06-05T05:44:21;94869.38;;;23.70;75.56
39301;BME280;25019;42.626;23.380;2023-06-05T05:46:47;94867.13;;;23.98;74.77
39301;BME280;25019;42.626;23.380;2023-06-05T05:49:13;94869.84;;;23.81;74.40
39301;BME280;25019;42.626;23.380;2023-06-05T05:51:39;94867.75;;;23.86;74.64
39301;BME280;25019;42.626;23.380;2023-06-05T05:54:05;94842.22;;;23.96;74.26
39301;BME280;25019;42.626;23.380;2023-06-05T05:56:31;94860.72;;;24.12;72.48
39301;BME280;25019;42.626;23.380;2023-06-05T05:58:58;94855.25;;;24.20;73.14
39301;BME280;25019;42.626;23.380;2023-06-05T06:01:24;94849.56;;;24.04;72.55
39301;BME280;25019;42.626;23.380;2023-06-05T06:03:49;94851.69;;;23.81;73.78
39301;BME280;25019;42.626;23.380;2023-06-05T06:06:15;94845.09;;;23.91;74.97
39301;BME280;25019;42.626;23.380;2023-06-05T06:08:41;94775.03;;;23.19;75.10
39301;BME280;25019;42.626;23.380;2023-06-05T06:11:07;94843.06;;;23.70;75.47
39301;BME280;25019;42.626;23.380;2023-06-05T06:13:33;94851.41;;;22.63;78.17
39301;BME280;25019;42.626;23.380;2023-06-05T06:15:59;94853.28;;;22.22;81.52
39301;BME280;25019;42.626;23.380;2023-06-05T06:18:25;94862.38;;;22.26;82.63
39301;BME280;25019;42.626;23.380;2023-06-05T06:20:51;94861.94;;;22.33;82.15
39301;BME280;25019;42.626;23.380;2023-06-05T06:23:16;94857.72;;;22.50;81.75
39301;BME280;25019;42.626;23.380;2023-06-05T06:25:42;94847.72;;;22.50;82.60
39301;BME280;25019;42.626;23.380;2023-06-05T06:28:07;94816.63;;;22.48;80.59
39301;BME280;25019;42.626;23.380;2023-06-05T06:30:33;94851.16;;;23.09;79.09
39301;BME280;25019;42.626;23.380;2023-06-05T06:32:59;94857.00;;;22.75;77.11
39301;BME280;25019;42.626;23.380;2023-06-05T06:35:25;94847.56;;;22.55;78.88
39301;BME280;25019;42.626;23.380;2023-06-05T06:37:54;94845.97;;;22.23;79.83
39301;BME280;25019;42.626;23.380;2023-06-05T06:40:20;94849.47;;;22.23;80.50
39301;BME280;25019;42.626;23.380;2023-06-05T06:42:46;94794.44;;;22.28;79.09
39301;BME280;25019;42.626;23.380;2023-06-05T06:45:21;94836.16;;;22.76;78.48
39301;BME280;25019;42.626;23.380;2023-06-05T06:47:47;94832.63;;;22.75;78.58
39301;BME280;25019;42.626;23.380;2023-06-05T06:50:13;94836.81;;;22.41;78.44
39301;BME280;25019;42.626;23.380;2023-06-05T06:52:39;94835.88;;;22.06;80.21
39301;BME280;25019;42.626;23.380;2023-06-05T06:55:05;94840.81;;;21.81;81.02
39301;BME280;25019;42.626;23.380;2023-06-05T06:57:32;94831.34;;;21.92;80.61
39301;BME280;25019;42.626;23.380;2023-06-05T06:59:57;94839.44;;;22.24;79.69
39301;BME280;25019;42.626;23.380;2023-06-05T07:02:24;94785.66;;;21.82;80.49
39301;BME280;25019;42.626;23.380;2023-06-05T07:04:51;94817.38;;;21.99;81.29
39301;BME280;25019;42.626;23.380;2023-06-05T07:07:19;94836.03;;;21.78;81.38
39301;BME280;25019;42.626;23.380;2023-06-05T07:09:48;94837.84;;;21.23;83.41
39301;BME280;25019;42.626;23.380;2023-06-05T07:12:15;94827.47;;;21.16;84.15
39301;BME280;25019;42.626;23.380;2023-06-05T07:14:42;94795.53;;;20.95;84.23
39301;BME280;25019;42.626;23.380;2023-06-05T07:17:08;94829.50;;;21.33;84.87
39301;BME280;25019;42.626;23.380;2023-06-05T07:19:34;94766.56;;;20.73;86.17
39301;BME280;25019;42.626;23.380;2023-06-05T07:22:02;94783.28;;;21.12;84.72
39301;BME280;25019;42.626;23.380;2023-06-05T07:24:32;94783.41;;;21.52;84.02
39301;BME280;25019;42.626;23.380;2023-06-05T07:27:02;94737.41;;;21.21;80.34
39301;BME280;25019;42.626;23.380;2023-06-05T07:29:28;94833.03;;;21.57;81.13
39301;BME280;25019;42.626;23.380;2023-06-05T07:31:55;94817.38;;;21.45;81.99
39301;BME280;25019;42.626;23.380;2023-06-05T07:34:22;94810.47;;;21.84;80.89
39301;BME280;25019;42.626;23.380;2023-06-05T07:36:49;94788.69;;;21.80;80.28
39301;BME280;25019;42.626;23.380;2023-06-05T07:39:17;94791.47;;;22.07;79.66
39301;BME280;25019;42.626;23.380;2023-06-05T07:41:43;94833.78;;;22.03;79.28
39301;BME280;25019;42.626;23.380;2023-06-05T07:44:14;94822.22;;;21.79;79.25
39301;BME280;25019;42.626;23.380;2023-06-05T07:46:41;94846.81;;;21.55;80.56
39301;BME280;25019;42.626;23.380;2023-06-05T07:49:07;94848.38;;;21.70;82.47
39301;BME280;25019;42.626;23.380;2023-06-05T07:51:34;94832.47;;;21.46;81.65
39301;BME280;25019;42.626;23.380;2023-06-05T07:54:06;94842.59;;;21.63;82.59
39301;BME280;25019;42.626;23.380;2023-06-05T07:56:32;94840.09;;;21.89;79.92
39301;BME280;25019;42.626;23.380;2023-06-05T07:58:59;94843.97;;;22.37;77.70
39301;BME280;25019;42.626;23.380;2023-06-05T08:01:25;94847.09;;;22.53;74.77
39301;BME280;25019;42.626;23.380;2023-06-05T08:03:51;94841.34;;;22.55;76.66
39301;BME280;25019;42.626;23.380;2023-06-05T08:06:17;94844.31;;;22.44;76.51
39301;BME280;25019;42.626;23.380;2023-06-05T08:08:42;94827.59;;;22.42;76.95
39301;BME280;25019;42.626;23.380;2023-06-05T08:11:09;94844.41;;;22.62;76.21
39301;BME280;25019;42.626;23.380;2023-06-05T08:13:36;94853.59;;;22.43;76.82
39301;BME280;25019;42.626;23.380;2023-06-05T08:16:02;94758.72;;;21.99;76.82
39301;BME280;25019;42.626;23.380;2023-06-05T08:18:28;94850.09;;;22.60;76.69
39301;BME280;25019;42.626;23.380;2023-06-05T08:20:54;94842.94;;;22.56;75.56
39301;BME280;25019;42.626;23.380;2023-06-05T08:23:19;94847.75;;;22.68;75.49
39301;BME280;25019;42.626;23.380;2023-06-05T08:25:45;94804.78;;;22.35;74.30
39301;BME280;25019;42.626;23.380;2023-06-05T08:28:14;94832.47;;;22.63;72.67
39301;BME280;25019;42.626;23.380;2023-06-05T08:30:41;94852.66;;;22.57;74.34
39301;BME280;25019;42.626;23.380;2023-06-05T08:33:07;94850.50;;;22.36;74.67
39301;BME280;25019;42.626;23.380;2023-06-05T08:35:32;94850.50;;;22.36;75.59
39301;BME280;25019;42.626;23.380;2023-06-05T08:37:58;94851.19;;;22.51;75.74
39301;BME280;25019;42.626;23.380;2023-06-05T08:40:27;94809.22;;;22.22;77.03
39301;BME280;25019;42.626;23.380;2023-06-05T08:42:54;94848.81;;;22.49;77.07
39301;BME280;25019;42.626;23.380;2023-06-05T08:45:21;94845.66;;;22.56;74.77
39301;BME280;25019;42.626;23.380;2023-06-05T08:47:50;94854.88;;;22.55;75.61
39301;BME280;25019;42.626;23.380;2023-06-05T08:50:16;94859.84;;;22.30;76.34
39301;BME280;25019;42.626;23.380;2023-06-05T08:52:43;94857.38;;;22.11;77.08
39301;BME280;25019;42.626;23.380;2023-06-05T08:55:11;94847.94;;;21.99;76.83
39301;BME280;25019;42.626;23.380;2023-06-05T08:57:40;94834.31;;;21.59;77.67
39301;BME280;25019;42.626;23.380;2023-06-05T09:00:07;94840.25;;;21.47;77.11
39301;BME280;25019;42.626;23.380;2023-06-05T09:02:40;94847.69;;;21.42;77.67
39301;BME280;25019;42.626;23.380;2023-06-05T09:05:12;94815.06;;;21.15;78.21
39301;BME280;25019;42.626;23.380;2023-06-05T09:07:38;94805.53;;;20.95;78.95
39301;BME280;25019;42.626;23.380;2023-06-05T09:10:05;94870.03;;;21.33;80.19
39301;BME280;25019;42.626;23.380;2023-06-05T09:12:31;94793.06;;;20.71;81.67
39301;BME280;25019;42.626;23.380;2023-06-05T09:14:57;94866.47;;;21.10;83.17
39301;BME280;25019;42.626;23.380;2023-06-05T09:17:23;94874.94;;;20.94;83.66
39301;BME280;25019;42.626;23.380;2023-06-05T09:19:48;94857.94;;;20.80;84.01
39301;BME280;25019;42.626;23.380;2023-06-05T09:22:16;94851.94;;;20.55;85.79
39301;BME280;25019;42.626;23.380;2023-06-05T09:24:57;94866.66;;;20.63;86.38
39301;BME280;25019;42.626;23.380;2023-06-05T09:27:22;94876.13;;;20.74;85.91
39301;BME280;25019;42.626;23.380;2023-06-05T09:30:01;94831.94;;;20.42;87.25
39301;BME280;25019;42.626;23.380;2023-06-05T09:32:28;94833.97;;;20.23;92.52
39301;BME280;25019;42.626;23.380;2023-06-05T09:34:56;94885.91;;;20.42;96.94
39301;BME280;25019;42.626;23.380;2023-06-05T09:37:34;94885.81;;;20.33;99.75
39301;BME280;25019;42.626;23.380;2023-06-05T09:40:01;94882.41;;;20.28;100.00
39301;BME280;25019;42.626;23.380;2023-06-05T09:42:34;94881.50;;;20.32;100.00
39301;BME280;25019;42.626;23.380;2023-06-05T09:45:02;94879.81;;;20.50;100.00
39301;BME280;25019;42.626;23.380;2023-06-05T09:47:27;94889.41;;;20.57;100.00
39301;BME280;25019;42.626;23.380;2023-06-05T09:49:53;94882.53;;;20.50;98.25
39301;BME280;25019;42.626;23.380;2023-06-05T09:52:19;94853.44;;;20.47;96.06
39301;BME280;25019;42.626;23.380;2023-06-05T09:54:45;94890.13;;;20.90;93.65
39301;BME280;25019;42.626;23.380;2023-06-05T09:57:15;94879.63;;;21.03;94.23
39301;BME280;25019;42.626;23.380;2023-06-05T10:02:12;94877.13;;;21.29;93.20
39301;BME280;25019;42.626;23.380;2023-06-05T10:07:10;94827.84;;;21.23;90.05
39301;BME280;25019;42.626;23.380;2023-06-05T10:09:37;94873.66;;;21.65;89.53
39301;BME280;25019;42.626;23.380;2023-06-05T10:12:03;94854.34;;;21.81;86.97
39301;BME280;25019;42.626;23.380;2023-06-05T10:14:29;94826.75;;;21.70;85.88
39301;BME280;25019;42.626;23.380;2023-06-05T10:16:55;94841.44;;;22.00;85.21
39301;BME280;25019;42.626;23.380;2023-06-05T10:19:22;94860.09;;;22.20;84.12
39301;BME280;25019;42.626;23.380;2023-06-05T10:21:50;94850.50;;;22.36;84.97
39301;BME280;25019;42.626;23.380;2023-06-05T10:24:30;94857.91;;;22.53;82.91
39301;BME280;25019;42.626;23.380;2023-06-05T10:32:37;94790.78;;;22.33;79.42
39301;BME280;25019;42.626;23.380;2023-06-05T10:35:41;94845.88;;;22.77;79.57
39301;BME280;25019;42.626;23.380;2023-06-05T10:38:24;94798.25;;;22.67;78.53
39301;BME280;25019;42.626;23.380;2023-06-05T10:40:54;94841.28;;;22.95;77.20
39301;BME280;25019;42.626;23.380;2023-06-05T10:45:59;94831.44;;;23.17;76.71
39301;BME280;25019;42.626;23.380;2023-06-05T10:51:39;94837.97;;;23.42;76.99
39301;BME280;25019;42.626;23.380;2023-06-05T10:54:58;94817.91;;;23.52;76.33
39301;BME280;25019;42.626;23.380;2023-06-05T10:57:00;94832.88;;;23.67;76.90
39301;BME280;25019;42.626;23.380;2023-06-05T10:59:34;94827.91;;;23.78;77.33
39301;BME280;25019;42.626;23.380;2023-06-05T11:07:20;94823.72;;;23.98;78.70
39301;BME280;25019;42.626;23.380;2023-06-05T11:17:43;94725.13;;;23.85;73.30
39301;BME280;25019;42.626;23.380;2023-06-05T11:28:04;94806.31;;;25.07;67.44
39301;BME280;25019;42.626;23.380;2023-06-05T11:30:32;94794.97;;;25.05;66.81
39301;BME280;25019;42.626;23.380;2023-06-05T11:33:12;94799.91;;;25.24;66.27
39301;BME280;25019;42.626;23.380;2023-06-05T11:35:43;94799.13;;;25.23;65.78
39301;BME280;25019;42.626;23.380;2023-06-05T11:38:11;94802.44;;;25.29;63.89
39301;BME280;25019;42.626;23.380;2023-06-05T11:40:37;94781.81;;;25.28;65.15
39301;BME280;25019;42.626;23.380;2023-06-05T11:43:05;94788.53;;;25.31;65.00
39301;BME280;25019;42.626;23.380;2023-06-05T11:45:32;94781.53;;;25.42;64.67
39301;BME280;25019;42.626;23.380;2023-06-05T11:48:12;94787.06;;;25.54;63.67
39301;BME280;25019;42.626;23.380;2023-06-05T11:51:03;94778.25;;;25.70;62.91
39301;BME280;25019;42.626;23.380;2023-06-05T11:53:31;94779.91;;;25.50;61.85
39301;BME280;25019;42.626;23.380;2023-06-05T11:55:57;94783.16;;;25.43;62.96
39301;BME280;25019;42.626;23.380;2023-06-05T11:58:30;94768.44;;;25.44;63.48
39301;BME280;25019;42.626;23.380;2023-06-05T12:01:05;94768.28;;;25.74;62.52
39301;BME280;25019;42.626;23.380;2023-06-05T12:03:33;94756.59;;;25.61;59.14
39301;BME280;25019;42.626;23.380;2023-06-05T12:06:01;94752.47;;;25.88;56.74
39301;BME280;25019;42.626;23.380;2023-06-05T12:08:29;94758.94;;;25.96;57.08
39301;BME280;25019;42.626;23.380;2023-06-05T12:10:57;94722.72;;;25.71;57.58
39301;BME280;25019;42.626;23.380;2023-06-05T12:13:52;94756.09;;;25.93;56.58
39301;BME280;25019;42.626;23.380;2023-06-05T12:16:19;94757.56;;;25.90;57.09
39301;BME280;25019;42.626;23.380;2023-06-05T12:18:46;94756.84;;;25.81;56.38
39301;BME280;25019;42.626;23.380;2023-06-05T12:21:20;94751.22;;;25.98;56.06
39301;BME280;25019;42.626;23.380;2023-06-05T12:23:46;94726.06;;;26.01;55.26
39301;BME280;25019;42.626;23.380;2023-06-05T12:26:12;94732.09;;;26.32;54.73
39301;BME280;25019;42.626;23.380;2023-06-05T12:28:38;94710.88;;;26.38;55.10
39301;BME280;25019;42.626;23.380;2023-06-05T12:31:04;94750.69;;;26.67;54.38
39301;BME280;25019;42.626;23.380;2023-06-05T12:33:30;94706.78;;;26.44;53.89
39301;BME280;25019;42.626;23.380;2023-06-05T12:36:22;94738.47;;;27.02;53.78
39301;BME280;25019;42.626;23.380;2023-06-05T12:38:47;94701.16;;;26.77;54.49
39301;BME280;25019;42.626;23.380;2023-06-05T12:41:13;94721.94;;;27.23;53.98
39301;BME280;25019;42.626;23.380;2023-06-05T12:43:39;94723.59;;;27.28;54.20
39301;BME280;25019;42.626;23.380;2023-06-05T12:46:05;94667.13;;;26.71;53.89
39301;BME280;25019;42.626;23.380;2023-06-05T12:48:33;94715.38;;;26.83;52.31
39301;BME280;25019;42.626;23.380;2023-06-05T12:50:58;94715.97;;;26.52;53.10
39301;BME280;25019;42.626;23.380;2023-06-05T12:53:24;94693.88;;;26.28;53.87
39301;BME280;25019;42.626;23.380;2023-06-05T12:55:50;94692.75;;;26.05;55.15
39301;BME280;25019;42.626;23.380;2023-06-05T12:58:16;94701.66;;;25.68;55.01
39301;BME280;25019;42.626;23.380;2023-06-05T13:00:42;94711.84;;;25.71;55.31
39301;BME280;25019;42.626;23.380;2023-06-05T13:03:09;94618.44;;;25.30;54.89
39301;BME280;25019;42.626;23.380;2023-06-05T13:05:35;94682.50;;;25.64;55.27
39301;BME280;25019;42.626;23.380;2023-06-05T13:08:01;94704.81;;;25.57;56.58
39301;BME280;25019;42.626;23.380;2023-06-05T13:10:28;94711.03;;;25.46;56.11
39301;BME280;25019;42.626;23.380;2023-06-05T13:12:54;94708.47;;;25.40;55.98
39301;BME280;25019;42.626;23.380;2023-06-05T13:15:19;94718.38;;;25.24;56.81
39301;BME280;25019;42.626;23.380;2023-06-05T13:17:45;94699.69;;;24.89;57.47
39301;BME280;25019;42.626;23.380;2023-06-05T13:20:12;94706.44;;;24.82;57.59
39301;BME280;25019;42.626;23.380;2023-06-05T13:22:38;94703.03;;;24.64;58.40
39301;BME280;25019;42.626;23.380;2023-06-05T13:25:06;94630.91;;;24.12;58.44
39301;BME280;25019;42.626;23.380;2023-06-05T13:27:32;94655.06;;;24.26;58.66
39301;BME280;25019;42.626;23.380;2023-06-05T13:29:58;94703.38;;;24.63;59.70